createdAt,value
2022-09-10T00:00:40.508Z,14.13
2022-09-10T00:04:40.566Z,16.3
2022-09-10T00:08:41.125Z,11.3
2022-09-10T00:12:40.530Z,12.52
2022-09-10T00:16:40.613Z,14.75
2022-09-10T00:20:40.457Z,16.45
2022-09-10T00:24:40.465Z,10.15
2022-09-10T00:28:40.788Z,14.18
2022-09-10T00:32:40.396Z,14.55
2022-09-10T00:36:40.440Z,14.02
2022-09-10T00:40:40.557Z,15.2
2022-09-10T00:44:40.127Z,11.38
2022-09-10T00:48:40.433Z,12.3
2022-09-10T00:52:40.553Z,12.02
2022-09-10T00:56:40.689Z,16.23
2022-09-10T01:00:40.538Z,13
2022-09-10T01:04:40.217Z,14.27
2022-09-10T01:08:40.884Z,16.17
2022-09-10T01:12:40.548Z,16.35
2022-09-10T01:16:40.900Z,14.98
2022-09-10T01:20:40.512Z,10.7
2022-09-10T01:24:40.724Z,13.85
2022-09-10T01:28:40.502Z,13.48
2022-09-10T01:32:40.571Z,9.05
2022-09-10T01:36:41.093Z,11.7
2022-09-10T01:40:40.463Z,14.2
2022-09-10T01:44:40.496Z,12
2022-09-10T01:48:40.328Z,14.57
2022-09-10T01:52:40.482Z,18.45
2022-09-10T01:56:40.474Z,14.55
2022-09-10T02:00:39.591Z,15.7
2022-09-10T02:04:40.538Z,13.77
2022-09-10T02:08:40.429Z,11.3
2022-09-10T02:12:40.465Z,11.65
2022-09-10T02:16:40.324Z,14.3
2022-09-10T02:20:40.485Z,17.25
2022-09-10T02:24:40.545Z,13.85
2022-09-10T02:28:40.253Z,11.7
2022-09-10T02:32:41.181Z,18
2022-09-10T02:36:40.520Z,9.55
2022-09-10T02:40:40.549Z,10.68
2022-09-10T02:44:40.469Z,13.68
2022-09-10T02:48:40.474Z,9.57
2022-09-10T02:52:40.427Z,10.63
2022-09-10T02:56:40.443Z,14.8
2022-09-10T03:00:40.440Z,11.4
2022-09-10T03:04:40.564Z,11.68
2022-09-10T03:08:40.654Z,12.9
2022-09-10T03:12:40.499Z,11.77
2022-09-10T03:16:40.635Z,13.27
2022-09-10T03:20:40.527Z,11.25
2022-09-10T03:24:40.553Z,10
2022-09-10T03:28:40.643Z,7.95
2022-09-10T03:32:40.162Z,7.95
2022-09-10T03:36:40.686Z,12.13
2022-09-10T03:40:40.625Z,10.27
2022-09-10T03:44:39.374Z,12.52
2022-09-10T03:48:40.649Z,8.05
2022-09-10T03:52:40.493Z,10.25
2022-09-10T03:56:40.445Z,14.02
2022-09-10T04:00:40.485Z,12.8
2022-09-10T04:04:40.651Z,10.8
2022-09-10T04:08:40.623Z,9.4
2022-09-10T04:12:40.416Z,13.68
2022-09-10T04:16:41.087Z,11.15
2022-09-10T04:20:40.625Z,19.33
2022-09-10T04:24:40.505Z,11.18
2022-09-10T04:28:40.551Z,11.57
2022-09-10T04:32:39.334Z,10.05
2022-09-10T04:36:40.999Z,12.35
2022-09-10T04:40:40.746Z,9.9
2022-09-10T04:44:40.418Z,10.02
2022-09-10T04:48:40.557Z,9.4
2022-09-10T04:52:40.723Z,12.13
2022-09-10T04:56:39.586Z,9.13
2022-09-10T05:00:40.812Z,14.13
2022-09-10T05:04:40.642Z,15.25
2022-09-10T05:08:40.733Z,10.45
2022-09-10T05:12:40.505Z,11.93
2022-09-10T05:16:40.569Z,16.95
2022-09-10T05:20:40.408Z,10.85
2022-09-10T05:24:40.488Z,9.38
2022-09-10T05:28:40.588Z,6.05
2022-09-10T05:32:40.473Z,6.65
2022-09-10T05:36:40.469Z,9.23
2022-09-10T05:40:40.622Z,4.05
2022-09-10T05:44:40.465Z,5.45
2022-09-10T05:48:41.811Z,5.82
2022-09-10T05:52:40.848Z,4.57
2022-09-10T05:56:39.872Z,2.4
2022-09-10T06:00:41.074Z,2.28
2022-09-10T06:04:40.477Z,5.12
2022-09-10T06:08:40.979Z,4.4
2022-09-10T06:12:40.447Z,8
2022-09-10T06:16:40.722Z,12.48
2022-09-10T06:20:40.547Z,2.67
2022-09-10T06:24:40.889Z,3.7
2022-09-10T06:28:40.620Z,3.17
2022-09-10T06:32:40.431Z,4.53
2022-09-10T06:36:40.470Z,5.57
2022-09-10T06:40:40.448Z,3.5
2022-09-10T06:44:40.494Z,4.1
2022-09-10T06:48:44.423Z,2.72
2022-09-10T06:52:40.463Z,5.62
2022-09-10T06:56:40.945Z,3.55
2022-09-10T07:00:41.420Z,3.58
2022-09-10T07:04:40.473Z,2.1
2022-09-10T07:08:40.699Z,1.95
2022-09-10T07:12:40.498Z,5.05
2022-09-10T07:16:40.512Z,4.03
2022-09-10T07:20:40.527Z,2.87
2022-09-10T07:24:40.645Z,4.28
2022-09-10T07:28:40.550Z,5.55
2022-09-10T07:32:40.788Z,1.48
2022-09-10T07:36:40.519Z,5.35
2022-09-10T07:40:41.177Z,6
2022-09-10T07:44:40.784Z,1.52
2022-09-10T07:48:41.003Z,8.48
2022-09-10T07:52:40.466Z,1.62
2022-09-10T07:56:39.363Z,5.03
2022-09-10T08:00:40.892Z,3.6
2022-09-10T08:04:40.409Z,1.37
2022-09-10T08:08:40.559Z,3.5
2022-09-10T08:12:40.865Z,4.93
2022-09-10T08:16:44.279Z,3.62
2022-09-10T08:20:40.487Z,3.4
2022-09-10T08:24:40.418Z,5.37
2022-09-10T08:28:40.834Z,2.05
2022-09-10T08:32:40.591Z,7.37
2022-09-10T08:36:40.586Z,4.47
2022-09-10T08:40:40.690Z,3.75
2022-09-10T08:44:40.625Z,2.42
2022-09-10T08:48:40.721Z,5.1
2022-09-10T08:52:40.856Z,1.85
2022-09-10T08:56:40.302Z,3.75
2022-09-10T09:00:40.753Z,3.3
2022-09-10T09:04:40.403Z,8.23
2022-09-10T09:08:41.141Z,2.37
2022-09-10T09:12:41.074Z,1.45
2022-09-10T09:16:39.841Z,7.25
2022-09-10T09:20:40.896Z,1.73
2022-09-10T09:24:41.027Z,9.32
2022-09-10T09:28:40.508Z,4.37
2022-09-10T09:32:40.937Z,2.47
2022-09-10T09:36:39.500Z,2.9
2022-09-10T09:40:40.830Z,2.67
2022-09-10T09:44:40.463Z,3.28
2022-09-10T09:48:40.650Z,4.32
2022-09-10T09:52:40.807Z,2.65
2022-09-10T09:56:40.484Z,3.9
2022-09-10T10:00:40.643Z,3.5
2022-09-10T10:04:42.248Z,1.87
2022-09-10T10:08:40.596Z,2.62
2022-09-10T10:12:41.174Z,1.9
2022-09-10T10:16:40.273Z,2.58
2022-09-10T10:20:40.537Z,2.42
2022-09-10T10:24:40.538Z,2.33
2022-09-10T10:28:40.621Z,1.85
2022-09-10T10:32:41.031Z,1.95
2022-09-10T10:36:40.530Z,5.22
2022-09-10T10:40:40.621Z,2.4
2022-09-10T10:44:40.433Z,2.65
2022-09-10T10:48:40.518Z,1.98
2022-09-10T10:52:40.496Z,3.22
2022-09-10T10:56:40.807Z,7.2
2022-09-10T11:00:41.357Z,1.92
2022-09-10T11:04:40.469Z,3.6
2022-09-10T11:08:40.628Z,1.42
2022-09-10T11:12:40.769Z,2.42
2022-09-10T11:16:40.679Z,2.75
2022-09-10T11:20:40.545Z,3.7
2022-09-10T11:24:40.513Z,2.17
2022-09-10T11:28:40.537Z,0.9
2022-09-10T11:32:40.323Z,16.95
2022-09-10T11:36:39.672Z,12.77
2022-09-10T11:40:40.800Z,8.7
2022-09-10T11:44:40.449Z,4.6
2022-09-10T11:48:40.692Z,7.78
2022-09-10T11:52:39.748Z,1.87
2022-09-10T11:56:40.843Z,4.1
2022-09-10T12:00:40.542Z,7.5
2022-09-10T12:04:44.596Z,2.53
2022-09-10T12:08:40.415Z,4.12
2022-09-10T12:12:40.576Z,3.78
2022-09-10T12:16:39.806Z,4.37
2022-09-10T12:20:40.728Z,5.53
2022-09-10T12:24:40.528Z,4.6
2022-09-10T12:28:40.774Z,4.35
2022-09-10T12:32:40.459Z,4.57
2022-09-10T12:36:40.639Z,2.45
2022-09-10T12:40:40.583Z,4.7
2022-09-10T12:44:40.438Z,5.32
2022-09-10T12:48:40.592Z,6.55
2022-09-10T12:52:40.483Z,5.07
2022-09-10T12:56:40.513Z,5.72
2022-09-10T13:00:41.062Z,4.25
2022-09-10T13:04:40.715Z,7.9
2022-09-10T13:08:40.622Z,3.33
2022-09-10T13:12:40.143Z,4.47
2022-09-10T13:16:40.571Z,3.28
2022-09-10T13:20:40.654Z,5.22
2022-09-10T13:24:40.626Z,4.65
2022-09-10T13:28:40.683Z,2.7
2022-09-10T13:32:40.528Z,4.37
2022-09-10T13:36:40.017Z,4.62
2022-09-10T13:40:40.782Z,1.7
2022-09-10T13:44:40.924Z,2.3
2022-09-10T13:48:40.468Z,3.53
2022-09-10T13:52:40.604Z,5.25
2022-09-10T13:56:39.926Z,2.33
2022-09-10T14:00:41.040Z,2.42
2022-09-10T14:04:44.747Z,1.95
2022-09-10T14:08:40.502Z,1.27
2022-09-10T14:12:40.365Z,3.37
2022-09-10T14:16:39.991Z,3.3
2022-09-10T14:20:40.620Z,3.15
2022-09-10T14:24:40.451Z,5.57
2022-09-10T14:28:40.633Z,1.3
2022-09-10T14:32:39.591Z,7.07
2022-09-10T14:36:40.562Z,3.4
2022-09-10T14:40:40.560Z,6.2
2022-09-10T14:44:40.923Z,8.77
2022-09-10T14:48:40.653Z,3.87
2022-09-10T14:52:40.720Z,2.3
2022-09-10T14:56:40.730Z,2.25
2022-09-10T15:00:40.648Z,3.67
2022-09-10T15:04:40.595Z,2.33
2022-09-10T15:08:40.441Z,3.05
2022-09-10T15:12:40.416Z,4.12
2022-09-10T15:16:40.524Z,4.1
2022-09-10T15:20:40.532Z,3.5
2022-09-10T15:25:05.493Z,3.75
2022-09-10T15:28:40.485Z,2.87
2022-09-10T15:32:41.058Z,4.9
2022-09-10T15:36:40.551Z,3.78
2022-09-10T15:40:40.512Z,4.55
2022-09-10T15:44:40.473Z,5.28
2022-09-10T15:48:40.707Z,3.95
2022-09-10T15:52:40.451Z,2.8
2022-09-10T15:56:40.520Z,3.62
2022-09-10T16:00:40.547Z,3.47
2022-09-10T16:04:43.091Z,4.18
2022-09-10T16:08:40.486Z,1.75
2022-09-10T16:12:41.026Z,2.33
2022-09-10T16:16:40.637Z,0.32
2022-09-10T16:20:40.672Z,2.28
2022-09-10T16:24:40.484Z,1.92
2022-09-10T16:28:40.600Z,1.48
2022-09-10T16:32:40.476Z,2.28
2022-09-10T16:36:40.420Z,3.33
2022-09-10T16:40:40.654Z,2.47
2022-09-10T16:44:40.931Z,0.7
2022-09-10T16:48:40.551Z,1.75
2022-09-10T16:52:40.751Z,3.75
2022-09-10T16:56:40.103Z,2.42
2022-09-10T17:00:40.467Z,4.97
2022-09-10T17:04:40.527Z,1.85
2022-09-10T17:08:40.590Z,3.62
2022-09-10T17:12:40.432Z,4.05
2022-09-10T17:16:40.753Z,3.05
2022-09-10T17:20:40.533Z,1.55
2022-09-10T17:24:41.091Z,7.65
2022-09-10T17:28:40.667Z,2.67
2022-09-10T17:32:40.946Z,3.42
2022-09-10T17:36:41.119Z,2.72
2022-09-10T17:40:40.793Z,2.95
2022-09-10T17:44:40.511Z,4.18
2022-09-10T17:48:39.696Z,3.92
2022-09-10T17:52:40.538Z,2.3
2022-09-10T17:56:40.722Z,3.75
2022-09-10T18:00:40.567Z,2.83
2022-09-10T18:04:40.312Z,3.28
2022-09-10T18:08:40.601Z,5.9
2022-09-10T18:12:40.758Z,2.58
2022-09-10T18:16:40.561Z,1.65
2022-09-10T18:20:40.595Z,1.37
2022-09-10T18:24:40.767Z,4.8
2022-09-10T18:28:40.617Z,2.55
2022-09-10T18:32:40.294Z,2.95
2022-09-10T18:36:40.775Z,4.15
2022-09-10T18:40:40.546Z,2.58
2022-09-10T18:44:40.514Z,4.2
2022-09-10T18:48:40.573Z,3.37
2022-09-10T18:52:40.634Z,4.55
2022-09-10T18:56:40.675Z,3.87
2022-09-10T19:00:40.490Z,3.37
2022-09-10T19:04:54.611Z,3.15
2022-09-10T19:08:40.475Z,3.8
2022-09-10T19:12:40.526Z,5.97
2022-09-10T19:16:40.491Z,4.32
2022-09-10T19:20:40.725Z,4.37
2022-09-10T19:24:56.335Z,5.07
2022-09-10T19:28:40.500Z,4.05
2022-09-10T19:32:40.870Z,2.62
2022-09-10T19:36:40.418Z,4.2
2022-09-10T19:40:40.534Z,5
2022-09-10T19:44:41.070Z,2.7
2022-09-10T19:48:40.603Z,2.33
2022-09-10T19:52:40.425Z,2.67
2022-09-10T19:56:40.486Z,5.57
2022-09-10T20:00:46.965Z,2.22
2022-09-10T20:04:40.514Z,4.18
2022-09-10T20:08:40.542Z,4
2022-09-10T20:12:40.593Z,7.57
2022-09-10T20:16:39.296Z,3.05
2022-09-10T20:20:40.494Z,3.8
2022-09-10T20:24:40.061Z,2.7
2022-09-10T20:28:40.996Z,3.72
2022-09-10T20:32:39.931Z,3.1
2022-09-10T20:36:40.670Z,2.5
2022-09-10T20:40:40.734Z,2.6
2022-09-10T20:44:40.423Z,3.9
2022-09-10T20:48:40.924Z,4.03
2022-09-10T20:52:40.531Z,3.7
2022-09-10T20:56:40.464Z,5.95
2022-09-10T21:00:40.520Z,10.45
2022-09-10T21:04:40.518Z,4.53
2022-09-10T21:08:40.600Z,9.43
2022-09-10T21:12:40.683Z,5.62
2022-09-10T21:16:40.820Z,10.15
2022-09-10T21:20:40.783Z,6.2
2022-09-10T21:24:40.459Z,7.4
2022-09-10T21:28:41.276Z,7.37
2022-09-10T21:32:40.541Z,9.82
2022-09-10T21:36:40.516Z,6.35
2022-09-10T21:40:40.637Z,4.4
2022-09-10T21:44:40.487Z,7.37
2022-09-10T21:48:40.363Z,5.05
2022-09-10T21:52:40.516Z,7.57
2022-09-10T21:56:40.319Z,4.2
2022-09-10T22:00:39.810Z,9.07
2022-09-10T22:04:40.709Z,5.53
2022-09-10T22:08:40.671Z,6.22
2022-09-10T22:12:40.522Z,8.35
2022-09-10T22:16:40.549Z,8.95
2022-09-10T22:20:40.546Z,6.05
2022-09-10T22:24:40.883Z,7.87
2022-09-10T22:28:40.532Z,10.02
2022-09-10T22:32:40.511Z,9.18
2022-09-10T22:36:40.842Z,8.35
2022-09-10T22:40:40.739Z,5.4
2022-09-10T22:44:40.480Z,7.1
2022-09-10T22:48:40.587Z,5.55
2022-09-10T22:52:40.533Z,7.53
2022-09-10T22:56:40.466Z,6.3
2022-09-10T23:00:40.512Z,6.62
2022-09-10T23:04:40.483Z,6.47
2022-09-10T23:08:40.603Z,5.53
2022-09-10T23:12:40.524Z,4.93
2022-09-10T23:16:40.717Z,6.53
2022-09-10T23:20:40.232Z,6.75
2022-09-10T23:24:40.508Z,6.57
2022-09-10T23:28:40.484Z,6.68
2022-09-10T23:32:40.662Z,7.4
2022-09-10T23:36:40.624Z,5.8
2022-09-10T23:40:40.543Z,11.18
2022-09-10T23:44:40.482Z,7.2
2022-09-10T23:48:40.506Z,12.3
2022-09-10T23:52:40.510Z,10.25
2022-09-10T23:56:40.945Z,9
